sensor_id;sensor_type;location;lat;lon;timestamp;P1;durP1;ratioP1;P2;durP2;ratioP2
56893;SDS011;43392;50.078;13.704;2023-05-13T00:01:18;7.25;;;4.30;;
56893;SDS011;43392;50.078;13.704;2023-05-13T00:03:44;8.18;;;4.65;;
56893;SDS011;43392;50.078;13.704;2023-05-13T00:06:12;9.23;;;4.90;;
56893;SDS011;43392;50.078;13.704;2023-05-13T00:08:39;9.15;;;4.78;;
56893;SDS011;43392;50.078;13.704;2023-05-13T00:11:05;9.50;;;4.57;;
56893;SDS011;43392;50.078;13.704;2023-05-13T00:13:32;8.35;;;4.50;;
56893;SDS011;43392;50.078;13.704;2023-05-13T00:15:59;8.52;;;4.63;;
56893;SDS011;43392;50.078;13.704;2023-05-13T00:18:26;9.18;;;4.57;;
56893;SDS011;43392;50.078;13.704;2023-05-13T00:20:52;9.80;;;4.28;;
56893;SDS011;43392;50.078;13.704;2023-05-13T00:23:21;6.97;;;4.05;;
56893;SDS011;43392;50.078;13.704;2023-05-13T00:25:48;8.70;;;4.32;;
56893;SDS011;43392;50.078;13.704;2023-05-13T00:28:14;7.05;;;4.70;;
56893;SDS011;43392;50.078;13.704;2023-05-13T00:30:41;7.65;;;4.07;;
56893;SDS011;43392;50.078;13.704;2023-05-13T00:33:09;9.30;;;4.68;;
56893;SDS011;43392;50.078;13.704;2023-05-13T00:35:36;9.75;;;4.85;;
56893;SDS011;43392;50.078;13.704;2023-05-13T00:38:02;9.32;;;5.20;;
56893;SDS011;43392;50.078;13.704;2023-05-13T00:40:30;8.05;;;4.90;;
56893;SDS011;43392;50.078;13.704;2023-05-13T00:43:01;8.40;;;4.85;;
56893;SDS011;43392;50.078;13.704;2023-05-13T00:45:28;8.77;;;4.32;;
56893;SDS011;43392;50.078;13.704;2023-05-13T00:47:55;6.97;;;4.38;;
56893;SDS011;43392;50.078;13.704;2023-05-13T00:50:21;7.38;;;4.47;;
56893;SDS011;43392;50.078;13.704;2023-05-13T00:52:48;10.63;;;4.80;;
56893;SDS011;43392;50.078;13.704;2023-05-13T00:55:16;7.45;;;4.50;;
56893;SDS011;43392;50.078;13.704;2023-05-13T00:57:44;8.52;;;4.38;;
56893;SDS011;43392;50.078;13.704;2023-05-13T01:00:11;8.10;;;4.65;;
56893;SDS011;43392;50.078;13.704;2023-05-13T01:02:40;8.43;;;4.80;;
56893;SDS011;43392;50.078;13.704;2023-05-13T01:05:14;10.38;;;4.63;;
56893;SDS011;43392;50.078;13.704;2023-05-13T01:07:50;8.15;;;4.07;;
56893;SDS011;43392;50.078;13.704;2023-05-13T01:10:28;7.10;;;4.35;;
56893;SDS011;43392;50.078;13.704;2023-05-13T01:13:03;8.60;;;4.78;;
56893;SDS011;43392;50.078;13.704;2023-05-13T01:15:33;8.50;;;4.35;;
56893;SDS011;43392;50.078;13.704;2023-05-13T01:18:05;7.32;;;4.50;;
56893;SDS011;43392;50.078;13.704;2023-05-13T01:20:34;9.88;;;4.50;;
56893;SDS011;43392;50.078;13.704;2023-05-13T01:23:04;8.68;;;4.30;;
56893;SDS011;43392;50.078;13.704;2023-05-13T01:25:31;8.68;;;4.57;;
56893;SDS011;43392;50.078;13.704;2023-05-13T01:27:57;9.15;;;4.25;;
56893;SDS011;43392;50.078;13.704;2023-05-13T01:30:25;8.40;;;4.28;;
56893;SDS011;43392;50.078;13.704;2023-05-13T01:32:52;9.10;;;4.72;;
56893;SDS011;43392;50.078;13.704;2023-05-13T01:35:19;6.63;;;4.25;;
56893;SDS011;43392;50.078;13.704;2023-05-13T01:37:46;9.65;;;4.60;;
56893;SDS011;43392;50.078;13.704;2023-05-13T01:40:16;7.35;;;4.55;;
56893;SDS011;43392;50.078;13.704;2023-05-13T01:42:43;7.57;;;5.15;;
56893;SDS011;43392;50.078;13.704;2023-05-13T01:45:10;7.25;;;5.00;;
56893;SDS011;43392;50.078;13.704;2023-05-13T01:47:37;8.55;;;4.68;;
56893;SDS011;43392;50.078;13.704;2023-05-13T01:50:04;7.70;;;4.75;;
56893;SDS011;43392;50.078;13.704;2023-05-13T01:52:31;7.82;;;4.93;;
56893;SDS011;43392;50.078;13.704;2023-05-13T01:54:58;8.07;;;4.85;;
56893;SDS011;43392;50.078;13.704;2023-05-13T01:57:26;9.85;;;4.80;;
56893;SDS011;43392;50.078;13.704;2023-05-13T01:59:52;7.75;;;4.50;;
56893;SDS011;43392;50.078;13.704;2023-05-13T02:02:19;8.32;;;5.03;;
56893;SDS011;43392;50.078;13.704;2023-05-13T02:04:45;8.77;;;4.93;;
56893;SDS011;43392;50.078;13.704;2023-05-13T02:07:12;9.65;;;5.25;;
56893;SDS011;43392;50.078;13.704;2023-05-13T02:09:38;8.65;;;5.10;;
56893;SDS011;43392;50.078;13.704;2023-05-13T02:12:05;8.35;;;5.30;;
56893;SDS011;43392;50.078;13.704;2023-05-13T02:14:34;7.55;;;4.72;;
56893;SDS011;43392;50.078;13.704;2023-05-13T02:17:01;9.07;;;5.00;;
56893;SDS011;43392;50.078;13.704;2023-05-13T02:19:28;9.30;;;5.13;;
56893;SDS011;43392;50.078;13.704;2023-05-13T02:21:55;9.35;;;5.03;;
56893;SDS011;43392;50.078;13.704;2023-05-13T02:24:21;9.50;;;5.55;;
56893;SDS011;43392;50.078;13.704;2023-05-13T02:26:48;8.80;;;5.55;;
56893;SDS011;43392;50.078;13.704;2023-05-13T02:29:14;9.30;;;5.53;;
56893;SDS011;43392;50.078;13.704;2023-05-13T02:31:42;9.30;;;5.47;;
56893;SDS011;43392;50.078;13.704;2023-05-13T02:34:09;9.15;;;5.65;;
56893;SDS011;43392;50.078;13.704;2023-05-13T02:36:36;9.07;;;5.47;;
56893;SDS011;43392;50.078;13.704;2023-05-13T02:39:02;8.93;;;5.60;;
56893;SDS011;43392;50.078;13.704;2023-05-13T02:41:29;8.48;;;5.35;;
56893;SDS011;43392;50.078;13.704;2023-05-13T02:43:55;9.20;;;5.40;;
56893;SDS011;43392;50.078;13.704;2023-05-13T02:46:22;8.85;;;5.47;;
56893;SDS011;43392;50.078;13.704;2023-05-13T02:48:50;9.00;;;5.38;;
56893;SDS011;43392;50.078;13.704;2023-05-13T02:51:16;9.52;;;5.50;;
56893;SDS011;43392;50.078;13.704;2023-05-13T02:53:43;13.02;;;6.45;;
56893;SDS011;43392;50.078;13.704;2023-05-13T02:56:10;10.52;;;5.70;;
56893;SDS011;43392;50.078;13.704;2023-05-13T02:58:40;9.48;;;5.80;;
56893;SDS011;43392;50.078;13.704;2023-05-13T03:01:06;11.02;;;5.75;;
56893;SDS011;43392;50.078;13.704;2023-05-13T03:03:33;9.50;;;5.40;;
56893;SDS011;43392;50.078;13.704;2023-05-13T03:06:01;10.02;;;5.32;;
56893;SDS011;43392;50.078;13.704;2023-05-13T03:08:27;10.98;;;6.03;;
56893;SDS011;43392;50.078;13.704;2023-05-13T03:10:54;10.68;;;5.95;;
56893;SDS011;43392;50.078;13.704;2023-05-13T03:13:20;8.20;;;5.40;;
56893;SDS011;43392;50.078;13.704;2023-05-13T03:15:47;10.07;;;6.03;;
56893;SDS011;43392;50.078;13.704;2023-05-13T03:18:14;9.75;;;6.60;;
56893;SDS011;43392;50.078;13.704;2023-05-13T03:20:40;9.88;;;5.75;;
56893;SDS011;43392;50.078;13.704;2023-05-13T03:23:08;10.48;;;5.70;;
56893;SDS011;43392;50.078;13.704;2023-05-13T03:25:35;9.55;;;6.47;;
56893;SDS011;43392;50.078;13.704;2023-05-13T03:28:02;10.07;;;6.38;;
56893;SDS011;43392;50.078;13.704;2023-05-13T03:30:28;9.35;;;6.00;;
56893;SDS011;43392;50.078;13.704;2023-05-13T03:32:55;10.57;;;6.57;;
56893;SDS011;43392;50.078;13.704;2023-05-13T03:35:22;11.40;;;6.43;;
56893;SDS011;43392;50.078;13.704;2023-05-13T03:37:48;12.60;;;6.63;;
56893;SDS011;43392;50.078;13.704;2023-05-13T03:40:16;10.48;;;6.88;;
56893;SDS011;43392;50.078;13.704;2023-05-13T03:42:44;10.63;;;6.20;;
56893;SDS011;43392;50.078;13.704;2023-05-13T03:45:11;10.95;;;6.43;;
56893;SDS011;43392;50.078;13.704;2023-05-13T03:47:37;9.63;;;6.53;;
56893;SDS011;43392;50.078;13.704;2023-05-13T03:50:05;9.23;;;6.00;;
56893;SDS011;43392;50.078;13.704;2023-05-13T03:52:32;11.38;;;6.75;;
56893;SDS011;43392;50.078;13.704;2023-05-13T03:54:59;11.32;;;6.45;;
56893;SDS011;43392;50.078;13.704;2023-05-13T03:57:27;12.05;;;7.22;;
56893;SDS011;43392;50.078;13.704;2023-05-13T03:59:53;15.52;;;8.00;;
56893;SDS011;43392;50.078;13.704;2023-05-13T04:02:20;10.35;;;6.72;;
56893;SDS011;43392;50.078;13.704;2023-05-13T04:04:48;11.70;;;7.20;;
56893;SDS011;43392;50.078;13.704;2023-05-13T04:07:14;11.85;;;7.70;;
56893;SDS011;43392;50.078;13.704;2023-05-13T04:09:41;10.73;;;6.90;;
56893;SDS011;43392;50.078;13.704;2023-05-13T04:12:07;11.27;;;7.35;;
56893;SDS011;43392;50.078;13.704;2023-05-13T04:14:35;12.55;;;8.27;;
56893;SDS011;43392;50.078;13.704;2023-05-13T04:17:02;13.25;;;8.00;;
56893;SDS011;43392;50.078;13.704;2023-05-13T04:19:29;11.40;;;7.40;;
56893;SDS011;43392;50.078;13.704;2023-05-13T04:21:56;13.43;;;7.28;;
56893;SDS011;43392;50.078;13.704;2023-05-13T04:24:22;12.18;;;7.93;;
56893;SDS011;43392;50.078;13.704;2023-05-13T04:26:49;11.48;;;7.22;;
56893;SDS011;43392;50.078;13.704;2023-05-13T04:29:15;11.68;;;7.78;;
56893;SDS011;43392;50.078;13.704;2023-05-13T04:31:43;11.93;;;7.95;;
56893;SDS011;43392;50.078;13.704;2023-05-13T04:34:10;11.52;;;7.65;;
56893;SDS011;43392;50.078;13.704;2023-05-13T04:36:37;11.57;;;7.70;;
56893;SDS011;43392;50.078;13.704;2023-05-13T04:39:04;10.52;;;7.43;;
56893;SDS011;43392;50.078;13.704;2023-05-13T04:41:30;10.77;;;7.20;;
56893;SDS011;43392;50.078;13.704;2023-05-13T04:43:57;12.07;;;7.68;;
56893;SDS011;43392;50.078;13.704;2023-05-13T04:46:23;12.35;;;7.22;;
56893;SDS011;43392;50.078;13.704;2023-05-13T04:48:51;11.20;;;8.05;;
56893;SDS011;43392;50.078;13.704;2023-05-13T04:51:18;18.08;;;10.98;;
56893;SDS011;43392;50.078;13.704;2023-05-13T04:53:44;12.40;;;8.05;;
56893;SDS011;43392;50.078;13.704;2023-05-13T04:56:11;34.63;;;14.90;;
56893;SDS011;43392;50.078;13.704;2023-05-13T04:58:37;55.58;;;24.45;;
56893;SDS011;43392;50.078;13.704;2023-05-13T05:01:04;23.58;;;10.30;;
56893;SDS011;43392;50.078;13.704;2023-05-13T05:03:31;19.13;;;8.93;;
56893;SDS011;43392;50.078;13.704;2023-05-13T05:05:59;12.07;;;7.47;;
56893;SDS011;43392;50.078;13.704;2023-05-13T05:08:25;10.43;;;6.90;;
56893;SDS011;43392;50.078;13.704;2023-05-13T05:10:52;10.98;;;7.32;;
56893;SDS011;43392;50.078;13.704;2023-05-13T05:13:20;11.68;;;7.20;;
56893;SDS011;43392;50.078;13.704;2023-05-13T05:15:46;10.98;;;7.72;;
56893;SDS011;43392;50.078;13.704;2023-05-13T05:18:13;10.75;;;7.18;;
56893;SDS011;43392;50.078;13.704;2023-05-13T05:20:39;10.55;;;7.15;;
56893;SDS011;43392;50.078;13.704;2023-05-13T05:23:07;11.55;;;7.20;;
56893;SDS011;43392;50.078;13.704;2023-05-13T05:25:34;11.80;;;7.13;;
56893;SDS011;43392;50.078;13.704;2023-05-13T05:28:01;10.10;;;6.78;;
56893;SDS011;43392;50.078;13.704;2023-05-13T05:30:29;13.18;;;7.13;;
56893;SDS011;43392;50.078;13.704;2023-05-13T05:32:56;11.73;;;6.90;;
56893;SDS011;43392;50.078;13.704;2023-05-13T05:35:23;10.88;;;6.07;;
56893;SDS011;43392;50.078;13.704;2023-05-13T05:37:50;9.30;;;6.10;;
56893;SDS011;43392;50.078;13.704;2023-05-13T05:40:18;7.47;;;4.60;;
56893;SDS011;43392;50.078;13.704;2023-05-13T05:42:45;8.98;;;4.65;;
56893;SDS011;43392;50.078;13.704;2023-05-13T05:45:11;9.63;;;5.03;;
56893;SDS011;43392;50.078;13.704;2023-05-13T05:47:38;8.55;;;5.10;;
56893;SDS011;43392;50.078;13.704;2023-05-13T05:50:05;7.55;;;4.38;;
56893;SDS011;43392;50.078;13.704;2023-05-13T05:52:32;9.10;;;5.05;;
56893;SDS011;43392;50.078;13.704;2023-05-13T05:54:59;14.18;;;5.28;;
56893;SDS011;43392;50.078;13.704;2023-05-13T05:57:27;8.63;;;4.55;;
56893;SDS011;43392;50.078;13.704;2023-05-13T05:59:53;7.80;;;4.53;;
56893;SDS011;43392;50.078;13.704;2023-05-13T06:02:20;6.68;;;4.40;;
56893;SDS011;43392;50.078;13.704;2023-05-13T06:04:47;7.80;;;4.82;;
56893;SDS011;43392;50.078;13.704;2023-05-13T06:07:13;7.38;;;4.60;;
56893;SDS011;43392;50.078;13.704;2023-05-13T06:09:40;9.18;;;4.22;;
56893;SDS011;43392;50.078;13.704;2023-05-13T06:12:06;8.10;;;4.50;;
56893;SDS011;43392;50.078;13.704;2023-05-13T06:14:34;6.43;;;4.20;;
56893;SDS011;43392;50.078;13.704;2023-05-13T06:17:01;7.10;;;4.32;;
56893;SDS011;43392;50.078;13.704;2023-05-13T06:19:28;6.40;;;4.20;;
56893;SDS011;43392;50.078;13.704;2023-05-13T06:21:54;7.03;;;4.25;;
56893;SDS011;43392;50.078;13.704;2023-05-13T06:24:21;6.43;;;3.88;;
56893;SDS011;43392;50.078;13.704;2023-05-13T06:26:47;6.50;;;3.70;;
56893;SDS011;43392;50.078;13.704;2023-05-13T06:29:14;6.30;;;3.72;;
56893;SDS011;43392;50.078;13.704;2023-05-13T06:31:42;7.03;;;3.33;;
56893;SDS011;43392;50.078;13.704;2023-05-13T06:34:09;6.30;;;2.90;;
56893;SDS011;43392;50.078;13.704;2023-05-13T06:36:40;7.70;;;3.40;;
56893;SDS011;43392;50.078;13.704;2023-05-13T06:39:07;6.57;;;3.50;;
56893;SDS011;43392;50.078;13.704;2023-05-13T06:41:34;17.48;;;3.58;;
56893;SDS011;43392;50.078;13.704;2023-05-13T06:44:00;5.95;;;2.78;;
56893;SDS011;43392;50.078;13.704;2023-05-13T06:46:27;5.57;;;2.72;;
56893;SDS011;43392;50.078;13.704;2023-05-13T06:48:55;3.55;;;2.33;;
56893;SDS011;43392;50.078;13.704;2023-05-13T06:51:22;4.50;;;2.50;;
56893;SDS011;43392;50.078;13.704;2023-05-13T06:53:48;6.68;;;2.58;;
56893;SDS011;43392;50.078;13.704;2023-05-13T06:56:15;6.00;;;2.80;;
56893;SDS011;43392;50.078;13.704;2023-05-13T06:58:41;4.32;;;2.33;;
56893;SDS011;43392;50.078;13.704;2023-05-13T07:01:08;4.82;;;2.65;;
56893;SDS011;43392;50.078;13.704;2023-05-13T07:03:35;5.32;;;2.60;;
56893;SDS011;43392;50.078;13.704;2023-05-13T07:06:03;4.60;;;2.50;;
56893;SDS011;43392;50.078;13.704;2023-05-13T07:08:30;6.00;;;2.90;;
56893;SDS011;43392;50.078;13.704;2023-05-13T07:10:57;8.95;;;2.83;;
56893;SDS011;43392;50.078;13.704;2023-05-13T07:13:23;4.32;;;2.40;;
56893;SDS011;43392;50.078;13.704;2023-05-13T07:15:50;3.13;;;1.85;;
56893;SDS011;43392;50.078;13.704;2023-05-13T07:18:17;4.18;;;1.90;;
56893;SDS011;43392;50.078;13.704;2023-05-13T07:20:43;2.45;;;1.88;;
56893;SDS011;43392;50.078;13.704;2023-05-13T07:23:11;3.90;;;2.35;;
56893;SDS011;43392;50.078;13.704;2023-05-13T07:25:38;3.63;;;1.77;;
56893;SDS011;43392;50.078;13.704;2023-05-13T07:28:05;4.45;;;2.00;;
56893;SDS011;43392;50.078;13.704;2023-05-13T07:30:32;5.10;;;2.40;;
56893;SDS011;43392;50.078;13.704;2023-05-13T07:32:59;3.10;;;1.95;;
56893;SDS011;43392;50.078;13.704;2023-05-13T07:35:25;3.88;;;1.90;;
56893;SDS011;43392;50.078;13.704;2023-05-13T07:37:52;4.10;;;2.10;;
56893;SDS011;43392;50.078;13.704;2023-05-13T07:40:21;3.22;;;1.90;;
56893;SDS011;43392;50.078;13.704;2023-05-13T07:42:48;3.60;;;1.83;;
56893;SDS011;43392;50.078;13.704;2023-05-13T07:45:14;5.88;;;2.05;;
56893;SDS011;43392;50.078;13.704;2023-05-13T07:47:41;4.10;;;2.00;;
56893;SDS011;43392;50.078;13.704;2023-05-13T07:50:07;4.90;;;2.22;;
56893;SDS011;43392;50.078;13.704;2023-05-13T07:52:34;9.55;;;4.00;;
56893;SDS011;43392;50.078;13.704;2023-05-13T07:55:01;7.60;;;3.17;;
56893;SDS011;43392;50.078;13.704;2023-05-13T07:57:29;7.00;;;2.75;;
56893;SDS011;43392;50.078;13.704;2023-05-13T07:59:56;16.85;;;3.35;;
56893;SDS011;43392;50.078;13.704;2023-05-13T08:02:22;16.70;;;3.90;;
56893;SDS011;43392;50.078;13.704;2023-05-13T08:04:49;7.88;;;3.30;;
56893;SDS011;43392;50.078;13.704;2023-05-13T08:07:16;6.70;;;2.83;;
56893;SDS011;43392;50.078;13.704;2023-05-13T08:09:42;5.38;;;3.00;;
56893;SDS011;43392;50.078;13.704;2023-05-13T08:12:09;5.80;;;3.30;;
56893;SDS011;43392;50.078;13.704;2023-05-13T08:14:37;8.07;;;3.40;;
56893;SDS011;43392;50.078;13.704;2023-05-13T08:17:04;5.90;;;3.35;;
56893;SDS011;43392;50.078;13.704;2023-05-13T08:19:31;5.85;;;3.55;;
56893;SDS011;43392;50.078;13.704;2023-05-13T08:21:58;6.43;;;3.17;;
56893;SDS011;43392;50.078;13.704;2023-05-13T08:24:25;11.45;;;4.47;;
56893;SDS011;43392;50.078;13.704;2023-05-13T08:26:51;5.80;;;3.75;;
56893;SDS011;43392;50.078;13.704;2023-05-13T08:29:18;6.05;;;3.60;;
56893;SDS011;43392;50.078;13.704;2023-05-13T08:31:46;7.03;;;3.80;;
56893;SDS011;43392;50.078;13.704;2023-05-13T08:34:12;7.70;;;3.70;;
56893;SDS011;43392;50.078;13.704;2023-05-13T08:36:39;10.68;;;3.38;;
56893;SDS011;43392;50.078;13.704;2023-05-13T08:39:06;16.38;;;4.13;;
56893;SDS011;43392;50.078;13.704;2023-05-13T08:41:32;17.17;;;4.60;;
56893;SDS011;43392;50.078;13.704;2023-05-13T08:43:59;6.30;;;3.60;;
56893;SDS011;43392;50.078;13.704;2023-05-13T08:46:30;5.82;;;3.47;;
56893;SDS011;43392;50.078;13.704;2023-05-13T08:48:59;5.95;;;3.33;;
56893;SDS011;43392;50.078;13.704;2023-05-13T08:51:26;6.68;;;3.63;;
56893;SDS011;43392;50.078;13.704;2023-05-13T08:53:53;8.60;;;3.60;;
56893;SDS011;43392;50.078;13.704;2023-05-13T08:56:21;7.05;;;3.40;;
56893;SDS011;43392;50.078;13.704;2023-05-13T08:58:49;8.38;;;3.22;;
56893;SDS011;43392;50.078;13.704;2023-05-13T09:01:16;12.45;;;4.18;;
56893;SDS011;43392;50.078;13.704;2023-05-13T09:03:47;7.82;;;3.90;;
56893;SDS011;43392;50.078;13.704;2023-05-13T09:06:21;5.20;;;3.10;;
56893;SDS011;43392;50.078;13.704;2023-05-13T09:08:48;9.48;;;3.38;;
56893;SDS011;43392;50.078;13.704;2023-05-13T09:11:14;9.13;;;3.63;;
56893;SDS011;43392;50.078;13.704;2023-05-13T09:13:41;7.05;;;3.30;;
56893;SDS011;43392;50.078;13.704;2023-05-13T09:16:08;15.00;;;4.28;;
56893;SDS011;43392;50.078;13.704;2023-05-13T09:18:37;9.80;;;3.58;;
56893;SDS011;43392;50.078;13.704;2023-05-13T09:21:24;8.50;;;3.25;;
56893;SDS011;43392;50.078;13.704;2023-05-13T09:23:54;6.22;;;3.30;;
56893;SDS011;43392;50.078;13.704;2023-05-13T09:26:27;8.02;;;3.42;;
56893;SDS011;43392;50.078;13.704;2023-05-13T09:31:43;8.00;;;3.85;;
56893;SDS011;43392;50.078;13.704;2023-05-13T09:34:10;6.78;;;3.60;;
56893;SDS011;43392;50.078;13.704;2023-05-13T09:36:38;5.72;;;3.20;;
56893;SDS011;43392;50.078;13.704;2023-05-13T09:39:07;7.63;;;3.20;;
56893;SDS011;43392;50.078;13.704;2023-05-13T09:41:33;6.00;;;3.50;;
56893;SDS011;43392;50.078;13.704;2023-05-13T09:44:01;7.10;;;3.30;;
56893;SDS011;43392;50.078;13.704;2023-05-13T09:46:29;10.77;;;3.65;;
56893;SDS011;43392;50.078;13.704;2023-05-13T09:48:57;13.32;;;3.47;;
56893;SDS011;43392;50.078;13.704;2023-05-13T09:51:24;5.80;;;3.20;;
56893;SDS011;43392;50.078;13.704;2023-05-13T09:53:53;5.85;;;3.10;;
56893;SDS011;43392;50.078;13.704;2023-05-13T09:56:21;5.00;;;2.80;;
56893;SDS011;43392;50.078;13.704;2023-05-13T09:58:52;4.90;;;3.10;;
56893;SDS011;43392;50.078;13.704;2023-05-13T10:01:18;4.60;;;2.83;;
56893;SDS011;43392;50.078;13.704;2023-05-13T10:03:45;5.07;;;2.50;;
56893;SDS011;43392;50.078;13.704;2023-05-13T10:06:13;4.60;;;2.80;;
56893;SDS011;43392;50.078;13.704;2023-05-13T10:08:41;5.03;;;2.58;;
56893;SDS011;43392;50.078;13.704;2023-05-13T10:11:10;6.97;;;2.88;;
56893;SDS011;43392;50.078;13.704;2023-05-13T10:13:39;4.75;;;2.63;;
56893;SDS011;43392;50.078;13.704;2023-05-13T10:16:07;4.22;;;2.55;;
56893;SDS011;43392;50.078;13.704;2023-05-13T10:18:34;6.25;;;3.05;;
56893;SDS011;43392;50.078;13.704;2023-05-13T10:21:02;6.38;;;2.40;;
56893;SDS011;43392;50.078;13.704;2023-05-13T10:23:29;5.55;;;3.17;;
56893;SDS011;43392;50.078;13.704;2023-05-13T10:25:59;9.70;;;4.60;;
56893;SDS011;43392;50.078;13.704;2023-05-13T10:28:28;6.15;;;3.13;;
56893;SDS011;43392;50.078;13.704;2023-05-13T10:30:56;3.70;;;2.25;;
56893;SDS011;43392;50.078;13.704;2023-05-13T10:33:22;4.70;;;2.20;;
56893;SDS011;43392;50.078;13.704;2023-05-13T10:35:52;4.65;;;2.53;;
56893;SDS011;43392;50.078;13.704;2023-05-13T10:38:40;6.30;;;2.85;;
56893;SDS011;43392;50.078;13.704;2023-05-13T10:41:25;7.13;;;2.90;;
56893;SDS011;43392;50.078;13.704;2023-05-13T10:44:05;4.90;;;2.63;;
56893;SDS011;43392;50.078;13.704;2023-05-13T10:46:32;4.50;;;2.35;;
56893;SDS011;43392;50.078;13.704;2023-05-13T10:49:03;3.70;;;2.30;;
56893;SDS011;43392;50.078;13.704;2023-05-13T10:51:31;4.32;;;2.08;;
56893;SDS011;43392;50.078;13.704;2023-05-13T10:53:57;5.20;;;2.45;;
56893;SDS011;43392;50.078;13.704;2023-05-13T10:56:24;4.68;;;2.80;;
56893;SDS011;43392;50.078;13.704;2023-05-13T10:58:58;3.53;;;2.33;;
56893;SDS011;43392;50.078;13.704;2023-05-13T11:01:28;8.93;;;3.05;;
56893;SDS011;43392;50.078;13.704;2023-05-13T11:03:56;5.33;;;2.97;;
56893;SDS011;43392;50.078;13.704;2023-05-13T11:06:28;5.30;;;2.50;;
56893;SDS011;43392;50.078;13.704;2023-05-13T11:08:57;4.07;;;2.10;;
56893;SDS011;43392;50.078;13.704;2023-05-13T11:11:25;5.50;;;2.63;;
56893;SDS011;43392;50.078;13.704;2023-05-13T11:14:01;4.75;;;2.22;;
56893;SDS011;43392;50.078;13.704;2023-05-13T11:16:34;3.92;;;2.50;;
56893;SDS011;43392;50.078;13.704;2023-05-13T11:19:01;3.55;;;1.90;;
56893;SDS011;43392;50.078;13.704;2023-05-13T11:21:29;3.50;;;2.28;;
56893;SDS011;43392;50.078;13.704;2023-05-13T11:23:57;4.95;;;2.55;;
56893;SDS011;43392;50.078;13.704;2023-05-13T11:26:26;4.18;;;2.67;;
56893;SDS011;43392;50.078;13.704;2023-05-13T11:29:08;6.22;;;3.67;;
56893;SDS011;43392;50.078;13.704;2023-05-13T11:31:42;8.13;;;3.95;;
56893;SDS011;43392;50.078;13.704;2023-05-13T11:34:11;8.70;;;5.40;;
56893;SDS011;43392;50.078;13.704;2023-05-13T11:36:40;5.50;;;3.15;;
56893;SDS011;43392;50.078;13.704;2023-05-13T11:39:08;7.43;;;4.25;;
56893;SDS011;43392;50.078;13.704;2023-05-13T11:41:39;14.05;;;8.40;;
56893;SDS011;43392;50.078;13.704;2023-05-13T11:44:06;6.05;;;3.50;;
56893;SDS011;43392;50.078;13.704;2023-05-13T11:46:33;9.10;;;6.13;;
56893;SDS011;43392;50.078;13.704;2023-05-13T11:49:01;5.75;;;3.33;;
56893;SDS011;43392;50.078;13.704;2023-05-13T11:51:28;7.43;;;4.22;;
56893;SDS011;43392;50.078;13.704;2023-05-13T11:53:59;4.60;;;2.72;;
56893;SDS011;43392;50.078;13.704;2023-05-13T11:56:27;6.28;;;2.15;;
56893;SDS011;43392;50.078;13.704;2023-05-13T11:58:54;15.35;;;12.95;;
56893;SDS011;43392;50.078;13.704;2023-05-13T12:01:21;3.20;;;2.17;;
56893;SDS011;43392;50.078;13.704;2023-05-13T12:03:49;3.05;;;1.90;;
56893;SDS011;43392;50.078;13.704;2023-05-13T12:06:27;3.95;;;2.17;;
56893;SDS011;43392;50.078;13.704;2023-05-13T12:08:54;4.97;;;2.97;;
56893;SDS011;43392;50.078;13.704;2023-05-13T12:11:20;3.80;;;2.33;;
56893;SDS011;43392;50.078;13.704;2023-05-13T12:13:48;6.63;;;3.22;;
56893;SDS011;43392;50.078;13.704;2023-05-13T12:16:15;4.47;;;2.72;;
56893;SDS011;43392;50.078;13.704;2023-05-13T12:18:41;6.97;;;3.92;;
56893;SDS011;43392;50.078;13.704;2023-05-13T12:21:20;2.65;;;1.70;;
56893;SDS011;43392;50.078;13.704;2023-05-13T12:23:48;4.68;;;2.35;;
56893;SDS011;43392;50.078;13.704;2023-05-13T12:26:14;4.97;;;2.75;;
56893;SDS011;43392;50.078;13.704;2023-05-13T12:28:42;2.92;;;1.80;;
56893;SDS011;43392;50.078;13.704;2023-05-13T12:31:14;4.45;;;1.70;;
56893;SDS011;43392;50.078;13.704;2023-05-13T12:33:43;3.13;;;1.67;;
56893;SDS011;43392;50.078;13.704;2023-05-13T12:36:14;3.30;;;1.83;;
56893;SDS011;43392;50.078;13.704;2023-05-13T12:41:28;4.15;;;2.03;;
56893;SDS011;43392;50.078;13.704;2023-05-13T12:43:57;7.13;;;3.60;;
56893;SDS011;43392;50.078;13.704;2023-05-13T12:46:24;9.50;;;4.97;;
56893;SDS011;43392;50.078;13.704;2023-05-13T12:48:51;12.60;;;6.18;;
56893;SDS011;43392;50.078;13.704;2023-05-13T12:51:20;4.85;;;2.65;;
56893;SDS011;43392;50.078;13.704;2023-05-13T12:53:47;2.90;;;1.55;;
56893;SDS011;43392;50.078;13.704;2023-05-13T12:56:15;6.20;;;2.70;;
56893;SDS011;43392;50.078;13.704;2023-05-13T12:58:41;4.22;;;2.40;;
56893;SDS011;43392;50.078;13.704;2023-05-13T13:01:08;6.88;;;2.90;;
56893;SDS011;43392;50.078;13.704;2023-05-13T13:03:34;4.18;;;2.40;;
56893;SDS011;43392;50.078;13.704;2023-05-13T13:06:01;7.15;;;3.38;;
56893;SDS011;43392;50.078;13.704;2023-05-13T13:08:28;6.57;;;3.17;;
56893;SDS011;43392;50.078;13.704;2023-05-13T13:10:54;2.88;;;1.92;;
56893;SDS011;43392;50.078;13.704;2023-05-13T13:13:22;2.63;;;1.80;;
56893;SDS011;43392;50.078;13.704;2023-05-13T13:15:49;4.38;;;2.58;;
56893;SDS011;43392;50.078;13.704;2023-05-13T13:18:16;4.70;;;2.50;;
56893;SDS011;43392;50.078;13.704;2023-05-13T13:20:43;3.08;;;2.00;;
56893;SDS011;43392;50.078;13.704;2023-05-13T13:23:10;4.53;;;2.28;;
56893;SDS011;43392;50.078;13.704;2023-05-13T13:25:36;6.60;;;3.85;;
56893;SDS011;43392;50.078;13.704;2023-05-13T13:28:04;7.55;;;4.00;;
56893;SDS011;43392;50.078;13.704;2023-05-13T13:30:32;3.90;;;1.90;;
56893;SDS011;43392;50.078;13.704;2023-05-13T13:32:58;5.25;;;2.90;;
56893;SDS011;43392;50.078;13.704;2023-05-13T13:35:25;8.27;;;4.50;;
56893;SDS011;43392;50.078;13.704;2023-05-13T13:37:51;6.22;;;4.07;;
56893;SDS011;43392;50.078;13.704;2023-05-13T13:40:20;7.75;;;3.95;;
56893;SDS011;43392;50.078;13.704;2023-05-13T13:42:46;6.07;;;2.25;;
56893;SDS011;43392;50.078;13.704;2023-05-13T13:45:13;3.92;;;2.30;;
56893;SDS011;43392;50.078;13.704;2023-05-13T13:47:41;3.85;;;2.13;;
56893;SDS011;43392;50.078;13.704;2023-05-13T13:50:08;4.68;;;2.58;;
56893;SDS011;43392;50.078;13.704;2023-05-13T13:52:35;4.32;;;2.25;;
56893;SDS011;43392;50.078;13.704;2023-05-13T13:55:02;3.85;;;1.90;;
56893;SDS011;43392;50.078;13.704;2023-05-13T13:57:29;4.40;;;2.60;;
56893;SDS011;43392;50.078;13.704;2023-05-13T13:59:56;4.18;;;2.17;;
56893;SDS011;43392;50.078;13.704;2023-05-13T14:02:23;4.03;;;2.20;;
56893;SDS011;43392;50.078;13.704;2023-05-13T14:04:50;3.22;;;2.10;;
56893;SDS011;43392;50.078;13.704;2023-05-13T14:07:17;4.93;;;2.65;;
56893;SDS011;43392;50.078;13.704;2023-05-13T14:09:44;4.07;;;2.38;;
56893;SDS011;43392;50.078;13.704;2023-05-13T14:12:11;6.90;;;2.65;;
56893;SDS011;43392;50.078;13.704;2023-05-13T14:14:38;6.70;;;2.70;;
56893;SDS011;43392;50.078;13.704;2023-05-13T14:17:04;5.40;;;2.28;;
56893;SDS011;43392;50.078;13.704;2023-05-13T14:19:31;5.60;;;2.92;;
56893;SDS011;43392;50.078;13.704;2023-05-13T14:21:59;7.25;;;2.70;;
56893;SDS011;43392;50.078;13.704;2023-05-13T14:24:25;11.95;;;5.45;;
56893;SDS011;43392;50.078;13.704;2023-05-13T14:26:52;6.45;;;3.35;;
56893;SDS011;43392;50.078;13.704;2023-05-13T14:29:19;5.60;;;2.88;;
56893;SDS011;43392;50.078;13.704;2023-05-13T14:31:45;4.68;;;2.50;;
56893;SDS011;43392;50.078;13.704;2023-05-13T14:34:13;5.65;;;2.97;;
56893;SDS011;43392;50.078;13.704;2023-05-13T14:36:40;7.00;;;3.22;;
56893;SDS011;43392;50.078;13.704;2023-05-13T14:39:08;7.95;;;3.72;;